sensor_id;sensor_type;location;lat;lon;timestamp;temperature;humidity
39825;DHT22;25503;52.532;13.640;2023-07-13T00:00:00;19.20;99.90
39825;DHT22;25503;52.532;13.640;2023-07-13T00:02:26;19.20;99.90
39825;DHT22;25503;52.532;13.640;2023-07-13T00:04:52;19.10;99.90
39825;DHT22;25503;52.532;13.640;2023-07-13T00:07:18;19.10;99.90
39825;DHT22;25503;52.532;13.640;2023-07-13T00:09:46;19.10;99.90
39825;DHT22;25503;52.532;13.640;2023-07-13T00:12:33;19.10;99.90
39825;DHT22;25503;52.532;13.640;2023-07-13T00:15:02;19.10;99.90
39825;DHT22;25503;52.532;13.640;2023-07-13T00:17:28;19.00;99.90
39825;DHT22;25503;52.532;13.640;2023-07-13T00:19:55;18.90;99.90
39825;DHT22;25503;52.532;13.640;2023-07-13T00:22:22;18.90;99.90
39825;DHT22;25503;52.532;13.640;2023-07-13T00:24:49;18.90;99.90
39825;DHT22;25503;52.532;13.640;2023-07-13T00:27:16;18.80;99.90
39825;DHT22;25503;52.532;13.640;2023-07-13T00:29:43;18.80;99.90
39825;DHT22;25503;52.532;13.640;2023-07-13T00:32:09;18.80;99.90
39825;DHT22;25503;52.532;13.640;2023-07-13T00:34:35;18.80;99.90
39825;DHT22;25503;52.532;13.640;2023-07-13T00:37:01;18.70;99.90
39825;DHT22;25503;52.532;13.640;2023-07-13T00:39:27;18.70;99.90
39825;DHT22;25503;52.532;13.640;2023-07-13T00:41:53;18.70;99.90
39825;DHT22;25503;52.532;13.640;2023-07-13T00:44:19;18.70;99.90
39825;DHT22;25503;52.532;13.640;2023-07-13T00:46:46;18.70;99.90
39825;DHT22;25503;52.532;13.640;2023-07-13T00:49:15;18.70;99.90
39825;DHT22;25503;52.532;13.640;2023-07-13T00:51:50;18.70;99.90
39825;DHT22;25503;52.532;13.640;2023-07-13T00:54:30;18.70;99.90
39825;DHT22;25503;52.532;13.640;2023-07-13T00:57:00;18.70;99.90
39825;DHT22;25503;52.532;13.640;2023-07-13T00:59:27;18.70;99.90
39825;DHT22;25503;52.532;13.640;2023-07-13T01:01:53;18.70;99.90
39825;DHT22;25503;52.532;13.640;2023-07-13T01:04:19;18.70;99.90
39825;DHT22;25503;52.532;13.640;2023-07-13T01:06:45;18.70;99.90
39825;DHT22;25503;52.532;13.640;2023-07-13T01:09:13;18.70;99.90
39825;DHT22;25503;52.532;13.640;2023-07-13T01:11:40;18.70;99.90
39825;DHT22;25503;52.532;13.640;2023-07-13T01:14:07;18.70;99.90
39825;DHT22;25503;52.532;13.640;2023-07-13T01:16:34;18.60;99.90
39825;DHT22;25503;52.532;13.640;2023-07-13T01:19:01;18.60;99.90
39825;DHT22;25503;52.532;13.640;2023-07-13T01:21:31;18.50;99.90
39825;DHT22;25503;52.532;13.640;2023-07-13T01:23:58;18.50;99.90
39825;DHT22;25503;52.532;13.640;2023-07-13T01:26:23;18.40;99.90
39825;DHT22;25503;52.532;13.640;2023-07-13T01:28:49;18.40;99.90
39825;DHT22;25503;52.532;13.640;2023-07-13T01:31:14;18.30;99.90
39825;DHT22;25503;52.532;13.640;2023-07-13T01:33:40;18.40;99.90
39825;DHT22;25503;52.532;13.640;2023-07-13T01:36:07;18.30;99.90
39825;DHT22;25503;52.532;13.640;2023-07-13T01:38:34;18.30;99.90
39825;DHT22;25503;52.532;13.640;2023-07-13T01:41:00;18.30;99.90
39825;DHT22;25503;52.532;13.640;2023-07-13T01:43:26;18.30;99.90
39825;DHT22;25503;52.532;13.640;2023-07-13T01:45:52;18.30;99.90
39825;DHT22;25503;52.532;13.640;2023-07-13T01:48:18;18.20;99.90
39825;DHT22;25503;52.532;13.640;2023-07-13T01:50:44;18.10;99.90
39825;DHT22;25503;52.532;13.640;2023-07-13T01:53:10;18.10;99.90
39825;DHT22;25503;52.532;13.640;2023-07-13T01:55:35;18.00;99.90
39825;DHT22;25503;52.532;13.640;2023-07-13T01:58:02;18.00;99.90
39825;DHT22;25503;52.532;13.640;2023-07-13T02:00:28;17.90;99.90
39825;DHT22;25503;52.532;13.640;2023-07-13T02:02:54;17.90;99.90
39825;DHT22;25503;52.532;13.640;2023-07-13T02:05:20;17.90;99.90
39825;DHT22;25503;52.532;13.640;2023-07-13T02:07:45;17.90;99.90
39825;DHT22;25503;52.532;13.640;2023-07-13T02:10:11;17.90;99.90
39825;DHT22;25503;52.532;13.640;2023-07-13T02:12:37;17.90;99.90
39825;DHT22;25503;52.532;13.640;2023-07-13T02:15:04;17.90;99.90
39825;DHT22;25503;52.532;13.640;2023-07-13T02:17:31;17.80;99.90
39825;DHT22;25503;52.532;13.640;2023-07-13T02:19:57;17.80;99.90
39825;DHT22;25503;52.532;13.640;2023-07-13T02:22:23;17.80;99.90
39825;DHT22;25503;52.532;13.640;2023-07-13T02:24:49;17.70;99.90
39825;DHT22;25503;52.532;13.640;2023-07-13T02:27:15;17.70;99.90
39825;DHT22;25503;52.532;13.640;2023-07-13T02:29:40;17.70;99.90
39825;DHT22;25503;52.532;13.640;2023-07-13T02:32:06;17.70;99.90
39825;DHT22;25503;52.532;13.640;2023-07-13T02:34:32;17.70;99.90
39825;DHT22;25503;52.532;13.640;2023-07-13T02:36:57;17.70;99.90
39825;DHT22;25503;52.532;13.640;2023-07-13T02:39:23;17.60;99.90
39825;DHT22;25503;52.532;13.640;2023-07-13T02:41:49;17.60;99.90
39825;DHT22;25503;52.532;13.640;2023-07-13T02:44:15;17.50;99.90
39825;DHT22;25503;52.532;13.640;2023-07-13T02:46:40;17.50;99.90
39825;DHT22;25503;52.532;13.640;2023-07-13T02:49:06;17.40;99.90
39825;DHT22;25503;52.532;13.640;2023-07-13T02:51:32;17.40;99.90
39825;DHT22;25503;52.532;13.640;2023-07-13T02:54:04;17.40;99.90
39825;DHT22;25503;52.532;13.640;2023-07-13T02:56:31;17.40;99.90
39825;DHT22;25503;52.532;13.640;2023-07-13T02:58:57;17.30;99.90
39825;DHT22;25503;52.532;13.640;2023-07-13T03:01:24;17.30;99.90
39825;DHT22;25503;52.532;13.640;2023-07-13T03:03:50;17.30;99.90
39825;DHT22;25503;52.532;13.640;2023-07-13T03:06:17;17.30;99.90
39825;DHT22;25503;52.532;13.640;2023-07-13T03:08:43;17.20;99.90
39825;DHT22;25503;52.532;13.640;2023-07-13T03:11:12;17.20;99.90
39825;DHT22;25503;52.532;13.640;2023-07-13T03:13:39;17.10;99.90
39825;DHT22;25503;52.532;13.640;2023-07-13T03:16:05;17.10;99.90
39825;DHT22;25503;52.532;13.640;2023-07-13T03:18:31;17.00;99.90
39825;DHT22;25503;52.532;13.640;2023-07-13T03:20:57;16.90;99.90
39825;DHT22;25503;52.532;13.640;2023-07-13T03:23:23;16.90;99.90
39825;DHT22;25503;52.532;13.640;2023-07-13T03:25:50;16.80;99.90
39825;DHT22;25503;52.532;13.640;2023-07-13T03:28:16;16.80;99.90
39825;DHT22;25503;52.532;13.640;2023-07-13T03:30:42;16.80;99.90
39825;DHT22;25503;52.532;13.640;2023-07-13T03:33:07;16.80;99.90
39825;DHT22;25503;52.532;13.640;2023-07-13T03:35:34;16.80;99.90
39825;DHT22;25503;52.532;13.640;2023-07-13T03:38:00;16.80;99.90
39825;DHT22;25503;52.532;13.640;2023-07-13T03:40:27;16.80;99.90
39825;DHT22;25503;52.532;13.640;2023-07-13T03:42:53;16.80;99.90
39825;DHT22;25503;52.532;13.640;2023-07-13T03:45:20;16.70;99.90
39825;DHT22;25503;52.532;13.640;2023-07-13T03:47:45;16.70;99.90
39825;DHT22;25503;52.532;13.640;2023-07-13T03:50:11;16.80;99.90
39825;DHT22;25503;52.532;13.640;2023-07-13T03:52:37;16.80;99.90
39825;DHT22;25503;52.532;13.640;2023-07-13T03:55:02;16.80;99.90
39825;DHT22;25503;52.532;13.640;2023-07-13T03:57:28;16.70;99.90
39825;DHT22;25503;52.532;13.640;2023-07-13T03:59:54;16.70;99.90
39825;DHT22;25503;52.532;13.640;2023-07-13T04:02:19;16.60;99.90
39825;DHT22;25503;52.532;13.640;2023-07-13T04:04:45;16.60;99.90
39825;DHT22;25503;52.532;13.640;2023-07-13T04:07:11;16.50;99.90
39825;DHT22;25503;52.532;13.640;2023-07-13T04:09:37;16.50;99.90
39825;DHT22;25503;52.532;13.640;2023-07-13T04:12:03;16.50;99.90
39825;DHT22;25503;52.532;13.640;2023-07-13T04:14:29;16.60;99.90
39825;DHT22;25503;52.532;13.640;2023-07-13T04:16:55;16.60;99.90
39825;DHT22;25503;52.532;13.640;2023-07-13T04:19:21;16.70;99.90
39825;DHT22;25503;52.532;13.640;2023-07-13T04:21:47;16.70;99.90
39825;DHT22;25503;52.532;13.640;2023-07-13T04:24:12;16.80;99.90
39825;DHT22;25503;52.532;13.640;2023-07-13T04:26:38;16.80;99.90
39825;DHT22;25503;52.532;13.640;2023-07-13T04:29:05;16.90;99.90
39825;DHT22;25503;52.532;13.640;2023-07-13T04:31:31;16.90;99.90
39825;DHT22;25503;52.532;13.640;2023-07-13T04:33:57;16.90;99.90
39825;DHT22;25503;52.532;13.640;2023-07-13T04:36:24;17.00;99.90
39825;DHT22;25503;52.532;13.640;2023-07-13T04:38:52;17.00;99.90
39825;DHT22;25503;52.532;13.640;2023-07-13T04:41:20;17.00;99.90
39825;DHT22;25503;52.532;13.640;2023-07-13T04:43:46;17.10;99.90
39825;DHT22;25503;52.532;13.640;2023-07-13T04:46:15;17.10;99.90
39825;DHT22;25503;52.532;13.640;2023-07-13T04:48:43;17.10;99.90
39825;DHT22;25503;52.532;13.640;2023-07-13T04:51:08;17.20;99.90
39825;DHT22;25503;52.532;13.640;2023-07-13T04:53:34;17.20;99.90
39825;DHT22;25503;52.532;13.640;2023-07-13T04:56:00;17.30;99.90
39825;DHT22;25503;52.532;13.640;2023-07-13T04:58:28;17.30;99.90
39825;DHT22;25503;52.532;13.640;2023-07-13T05:01:00;17.40;99.90
39825;DHT22;25503;52.532;13.640;2023-07-13T05:03:26;17.50;99.90
39825;DHT22;25503;52.532;13.640;2023-07-13T05:05:56;17.60;99.90
39825;DHT22;25503;52.532;13.640;2023-07-13T05:08:22;17.60;99.90
39825;DHT22;25503;52.532;13.640;2023-07-13T05:10:48;17.80;99.90
39825;DHT22;25503;52.532;13.640;2023-07-13T05:13:13;17.90;99.90
39825;DHT22;25503;52.532;13.640;2023-07-13T05:15:39;18.00;99.90
39825;DHT22;25503;52.532;13.640;2023-07-13T05:18:04;18.10;99.90
39825;DHT22;25503;52.532;13.640;2023-07-13T05:20:30;18.20;99.90
39825;DHT22;25503;52.532;13.640;2023-07-13T05:22:56;18.30;99.90
39825;DHT22;25503;52.532;13.640;2023-07-13T05:25:21;18.30;99.90
39825;DHT22;25503;52.532;13.640;2023-07-13T05:27:47;18.40;99.90
39825;DHT22;25503;52.532;13.640;2023-07-13T05:30:13;18.60;99.90
39825;DHT22;25503;52.532;13.640;2023-07-13T05:32:39;18.70;99.90
39825;DHT22;25503;52.532;13.640;2023-07-13T05:35:05;18.70;99.90
39825;DHT22;25503;52.532;13.640;2023-07-13T05:37:31;18.80;99.90
39825;DHT22;25503;52.532;13.640;2023-07-13T05:39:56;18.90;99.90
39825;DHT22;25503;52.532;13.640;2023-07-13T05:42:22;19.00;99.90
39825;DHT22;25503;52.532;13.640;2023-07-13T05:44:47;19.10;99.90
39825;DHT22;25503;52.532;13.640;2023-07-13T05:47:13;19.20;99.90
39825;DHT22;25503;52.532;13.640;2023-07-13T05:49:40;19.20;99.90
39825;DHT22;25503;52.532;13.640;2023-07-13T05:52:06;19.40;99.90
39825;DHT22;25503;52.532;13.640;2023-07-13T05:54:32;19.40;99.90
39825;DHT22;25503;52.532;13.640;2023-07-13T05:56:57;19.50;99.90
39825;DHT22;25503;52.532;13.640;2023-07-13T05:59:23;19.60;99.90
39825;DHT22;25503;52.532;13.640;2023-07-13T06:01:49;19.70;99.90
39825;DHT22;25503;52.532;13.640;2023-07-13T06:04:17;19.80;99.90
39825;DHT22;25503;52.532;13.640;2023-07-13T06:06:43;19.90;99.90
39825;DHT22;25503;52.532;13.640;2023-07-13T06:09:09;19.90;99.90
39825;DHT22;25503;52.532;13.640;2023-07-13T06:11:34;20.00;99.90
39825;DHT22;25503;52.532;13.640;2023-07-13T06:14:00;20.10;99.90
39825;DHT22;25503;52.532;13.640;2023-07-13T06:16:26;20.20;99.90
39825;DHT22;25503;52.532;13.640;2023-07-13T06:18:51;20.30;99.90
39825;DHT22;25503;52.532;13.640;2023-07-13T06:21:19;20.30;99.90
39825;DHT22;25503;52.532;13.640;2023-07-13T06:23:47;20.40;99.90
39825;DHT22;25503;52.532;13.640;2023-07-13T06:26:16;20.50;99.90
39825;DHT22;25503;52.532;13.640;2023-07-13T06:28:42;20.60;99.90
39825;DHT22;25503;52.532;13.640;2023-07-13T06:31:09;20.60;99.90
39825;DHT22;25503;52.532;13.640;2023-07-13T06:33:36;20.70;99.90
39825;DHT22;25503;52.532;13.640;2023-07-13T06:36:03;20.70;99.90
39825;DHT22;25503;52.532;13.640;2023-07-13T06:38:29;20.80;99.90
39825;DHT22;25503;52.532;13.640;2023-07-13T06:40:55;20.90;99.90
39825;DHT22;25503;52.532;13.640;2023-07-13T06:43:20;20.90;99.90
39825;DHT22;25503;52.532;13.640;2023-07-13T06:45:47;20.90;99.90
39825;DHT22;25503;52.532;13.640;2023-07-13T06:48:18;21.00;99.90
39825;DHT22;25503;52.532;13.640;2023-07-13T06:50:45;21.00;99.90
39825;DHT22;25503;52.532;13.640;2023-07-13T06:53:12;21.00;99.90
39825;DHT22;25503;52.532;13.640;2023-07-13T06:55:38;21.00;99.90
39825;DHT22;25503;52.532;13.640;2023-07-13T06:58:04;21.10;99.90
39825;DHT22;25503;52.532;13.640;2023-07-13T07:00:30;21.20;99.90
39825;DHT22;25503;52.532;13.640;2023-07-13T07:02:55;21.30;99.90
39825;DHT22;25503;52.532;13.640;2023-07-13T07:05:21;21.30;99.90
39825;DHT22;25503;52.532;13.640;2023-07-13T07:07:51;21.40;99.90
39825;DHT22;25503;52.532;13.640;2023-07-13T07:10:18;21.40;99.90
39825;DHT22;25503;52.532;13.640;2023-07-13T07:12:44;21.50;99.90
39825;DHT22;25503;52.532;13.640;2023-07-13T07:15:10;21.60;99.90
39825;DHT22;25503;52.532;13.640;2023-07-13T07:17:36;21.80;99.90
39825;DHT22;25503;52.532;13.640;2023-07-13T07:20:02;21.90;99.90
39825;DHT22;25503;52.532;13.640;2023-07-13T07:22:29;22.00;99.90
39825;DHT22;25503;52.532;13.640;2023-07-13T07:24:56;22.10;99.90
39825;DHT22;25503;52.532;13.640;2023-07-13T07:27:22;22.20;99.90
39825;DHT22;25503;52.532;13.640;2023-07-13T07:29:49;22.30;99.90
39825;DHT22;25503;52.532;13.640;2023-07-13T07:32:15;22.30;99.90
39825;DHT22;25503;52.532;13.640;2023-07-13T07:34:40;22.40;99.90
39825;DHT22;25503;52.532;13.640;2023-07-13T07:37:06;22.50;99.90
39825;DHT22;25503;52.532;13.640;2023-07-13T07:39:32;22.50;99.90
39825;DHT22;25503;52.532;13.640;2023-07-13T07:41:57;22.60;99.90
39825;DHT22;25503;52.532;13.640;2023-07-13T07:44:23;22.60;99.90
39825;DHT22;25503;52.532;13.640;2023-07-13T07:46:49;22.70;99.90
39825;DHT22;25503;52.532;13.640;2023-07-13T07:49:15;22.80;99.90
39825;DHT22;25503;52.532;13.640;2023-07-13T07:51:40;22.90;99.90
39825;DHT22;25503;52.532;13.640;2023-07-13T07:54:06;23.00;99.90
39825;DHT22;25503;52.532;13.640;2023-07-13T07:56:32;23.00;99.90
39825;DHT22;25503;52.532;13.640;2023-07-13T07:58:57;23.10;99.90
39825;DHT22;25503;52.532;13.640;2023-07-13T08:01:23;23.20;99.90
39825;DHT22;25503;52.532;13.640;2023-07-13T08:03:49;23.20;99.90
39825;DHT22;25503;52.532;13.640;2023-07-13T08:06:14;23.20;99.90
39825;DHT22;25503;52.532;13.640;2023-07-13T08:08:40;23.20;99.90
39825;DHT22;25503;52.532;13.640;2023-07-13T08:11:07;23.30;99.90
39825;DHT22;25503;52.532;13.640;2023-07-13T08:13:33;23.30;99.90
39825;DHT22;25503;52.532;13.640;2023-07-13T08:16:00;23.20;99.90
39825;DHT22;25503;52.532;13.640;2023-07-13T08:18:26;23.30;99.90
39825;DHT22;25503;52.532;13.640;2023-07-13T08:20:53;23.40;99.90
39825;DHT22;25503;52.532;13.640;2023-07-13T08:23:21;23.40;99.90
39825;DHT22;25503;52.532;13.640;2023-07-13T08:25:53;23.40;99.90
39825;DHT22;25503;52.532;13.640;2023-07-13T08:28:22;23.40;99.90
39825;DHT22;25503;52.532;13.640;2023-07-13T08:30:48;23.40;99.90
39825;DHT22;25503;52.532;13.640;2023-07-13T08:33:18;23.50;99.90
39825;DHT22;25503;52.532;13.640;2023-07-13T08:35:47;23.60;99.90
39825;DHT22;25503;52.532;13.640;2023-07-13T08:38:14;23.60;99.90
39825;DHT22;25503;52.532;13.640;2023-07-13T08:40:41;23.70;99.90
39825;DHT22;25503;52.532;13.640;2023-07-13T08:43:16;23.90;99.90
39825;DHT22;25503;52.532;13.640;2023-07-13T08:45:46;23.90;99.90
39825;DHT22;25503;52.532;13.640;2023-07-13T08:48:19;23.90;99.90
39825;DHT22;25503;52.532;13.640;2023-07-13T08:50:58;24.00;99.90
39825;DHT22;25503;52.532;13.640;2023-07-13T08:53:34;24.00;99.90
39825;DHT22;25503;52.532;13.640;2023-07-13T08:56:02;24.00;99.90
39825;DHT22;25503;52.532;13.640;2023-07-13T08:58:28;24.00;99.90
39825;DHT22;25503;52.532;13.640;2023-07-13T09:01:03;24.00;99.90
39825;DHT22;25503;52.532;13.640;2023-07-13T09:03:42;24.00;99.90
39825;DHT22;25503;52.532;13.640;2023-07-13T09:06:14;24.10;99.90
39825;DHT22;25503;52.532;13.640;2023-07-13T09:09:02;24.00;99.90
39825;DHT22;25503;52.532;13.640;2023-07-13T09:12:00;24.00;99.90
39825;DHT22;25503;52.532;13.640;2023-07-13T09:14:58;24.00;99.90
39825;DHT22;25503;52.532;13.640;2023-07-13T09:22:48;23.90;99.90
39825;DHT22;25503;52.532;13.640;2023-07-13T09:25:45;23.80;99.90
39825;DHT22;25503;52.532;13.640;2023-07-13T09:28:17;23.90;99.90
39825;DHT22;25503;52.532;13.640;2023-07-13T09:33:17;24.30;99.90
39825;DHT22;25503;52.532;13.640;2023-07-13T09:35:42;24.60;99.90
39825;DHT22;25503;52.532;13.640;2023-07-13T09:38:17;24.70;99.90
39825;DHT22;25503;52.532;13.640;2023-07-13T09:43:20;25.10;99.90
39825;DHT22;25503;52.532;13.640;2023-07-13T09:45:47;25.30;99.90
39825;DHT22;25503;52.532;13.640;2023-07-13T09:48:15;25.50;99.90
39825;DHT22;25503;52.532;13.640;2023-07-13T09:50:43;25.60;99.90
39825;DHT22;25503;52.532;13.640;2023-07-13T09:53:17;25.70;99.90
39825;DHT22;25503;52.532;13.640;2023-07-13T09:55:46;25.90;99.90
39825;DHT22;25503;52.532;13.640;2023-07-13T10:00:53;26.20;99.90
39825;DHT22;25503;52.532;13.640;2023-07-13T10:03:21;26.10;99.90
39825;DHT22;25503;52.532;13.640;2023-07-13T10:05:50;26.20;99.90
39825;DHT22;25503;52.532;13.640;2023-07-13T10:08:36;26.30;99.90
39825;DHT22;25503;52.532;13.640;2023-07-13T10:11:29;26.40;99.90
39825;DHT22;25503;52.532;13.640;2023-07-13T10:14:09;26.40;99.90
39825;DHT22;25503;52.532;13.640;2023-07-13T10:16:36;26.70;99.90
39825;DHT22;25503;52.532;13.640;2023-07-13T10:22:27;26.90;99.90
39825;DHT22;25503;52.532;13.640;2023-07-13T10:24:55;27.00;99.90
39825;DHT22;25503;52.532;13.640;2023-07-13T10:27:29;27.00;99.90
39825;DHT22;25503;52.532;13.640;2023-07-13T10:30:26;27.10;99.90
39825;DHT22;25503;52.532;13.640;2023-07-13T10:32:53;26.80;99.90
39825;DHT22;25503;52.532;13.640;2023-07-13T10:35:21;26.90;99.90
39825;DHT22;25503;52.532;13.640;2023-07-13T10:40:37;27.00;99.90
39825;DHT22;25503;52.532;13.640;2023-07-13T10:43:09;27.00;99.90
39825;DHT22;25503;52.532;13.640;2023-07-13T10:45:37;26.90;99.90
39825;DHT22;25503;52.532;13.640;2023-07-13T10:48:04;26.80;99.90
39825;DHT22;25503;52.532;13.640;2023-07-13T10:50:31;26.80;99.90
39825;DHT22;25503;52.532;13.640;2023-07-13T10:58:24;27.20;99.90
39825;DHT22;25503;52.532;13.640;2023-07-13T11:01:11;27.20;99.90
39825;DHT22;25503;52.532;13.640;2023-07-13T11:06:11;27.20;99.90
39825;DHT22;25503;52.532;13.640;2023-07-13T11:18:48;27.20;98.80
39825;DHT22;25503;52.532;13.640;2023-07-13T11:23:51;27.00;98.80
39825;DHT22;25503;52.532;13.640;2023-07-13T11:29:26;27.20;99.10
39825;DHT22;25503;52.532;13.640;2023-07-13T11:31:59;27.30;98.60
39825;DHT22;25503;52.532;13.640;2023-07-13T11:34:33;27.40;98.80
39825;DHT22;25503;52.532;13.640;2023-07-13T11:37:01;27.50;99.20
39825;DHT22;25503;52.532;13.640;2023-07-13T11:39:31;27.60;99.10
39825;DHT22;25503;52.532;13.640;2023-07-13T11:42:02;27.90;98.40
39825;DHT22;25503;52.532;13.640;2023-07-13T11:44:30;27.80;98.70
39825;DHT22;25503;52.532;13.640;2023-07-13T11:46:58;28.00;99.20
39825;DHT22;25503;52.532;13.640;2023-07-13T11:49:28;28.00;99.50
39825;DHT22;25503;52.532;13.640;2023-07-13T11:51:55;28.20;98.30
39825;DHT22;25503;52.532;13.640;2023-07-13T11:54:33;28.40;97.40
39825;DHT22;25503;52.532;13.640;2023-07-13T11:57:10;28.40;96.90
39825;DHT22;25503;52.532;13.640;2023-07-13T11:59:40;28.20;96.80
39825;DHT22;25503;52.532;13.640;2023-07-13T12:02:18;28.10;96.80
39825;DHT22;25503;52.532;13.640;2023-07-13T12:04:49;28.30;97.60
39825;DHT22;25503;52.532;13.640;2023-07-13T12:07:19;28.40;96.70
39825;DHT22;25503;52.532;13.640;2023-07-13T12:09:45;28.40;97.50
39825;DHT22;25503;52.532;13.640;2023-07-13T12:12:13;28.50;97.30
39825;DHT22;25503;52.532;13.640;2023-07-13T12:14:39;28.50;97.00
39825;DHT22;25503;52.532;13.640;2023-07-13T12:17:19;28.50;96.60
39825;DHT22;25503;52.532;13.640;2023-07-13T12:19:47;28.50;96.30
39825;DHT22;25503;52.532;13.640;2023-07-13T12:22:14;28.40;97.40
39825;DHT22;25503;52.532;13.640;2023-07-13T12:24:42;28.50;97.20
39825;DHT22;25503;52.532;13.640;2023-07-13T12:27:24;28.50;97.50
39825;DHT22;25503;52.532;13.640;2023-07-13T12:32:25;28.70;95.90
39825;DHT22;25503;52.532;13.640;2023-07-13T12:35:14;28.60;96.60
39825;DHT22;25503;52.532;13.640;2023-07-13T12:37:44;28.70;97.00
39825;DHT22;25503;52.532;13.640;2023-07-13T12:40:19;28.40;95.70
39825;DHT22;25503;52.532;13.640;2023-07-13T12:42:46;28.20;95.90
39825;DHT22;25503;52.532;13.640;2023-07-13T12:45:25;28.30;95.70
39825;DHT22;25503;52.532;13.640;2023-07-13T12:47:57;28.40;96.20
39825;DHT22;25503;52.532;13.640;2023-07-13T12:50:41;28.50;96.20
39825;DHT22;25503;52.532;13.640;2023-07-13T12:53:13;28.40;96.50
39825;DHT22;25503;52.532;13.640;2023-07-13T12:55:46;28.40;97.00
39825;DHT22;25503;52.532;13.640;2023-07-13T12:58:32;28.40;97.40
39825;DHT22;25503;52.532;13.640;2023-07-13T13:01:02;28.50;97.60
39825;DHT22;25503;52.532;13.640;2023-07-13T13:06:22;28.50;97.40
39825;DHT22;25503;52.532;13.640;2023-07-13T13:08:54;28.60;96.90
39825;DHT22;25503;52.532;13.640;2023-07-13T13:11:22;28.60;95.40
39825;DHT22;25503;52.532;13.640;2023-07-13T13:13:48;28.50;95.40
39825;DHT22;25503;52.532;13.640;2023-07-13T13:18:54;28.40;95.20
39825;DHT22;25503;52.532;13.640;2023-07-13T13:21:20;28.30;96.40
39825;DHT22;25503;52.532;13.640;2023-07-13T13:23:46;28.20;95.90
39825;DHT22;25503;52.532;13.640;2023-07-13T13:26:14;28.00;96.30
39825;DHT22;25503;52.532;13.640;2023-07-13T13:28:42;27.90;95.60
39825;DHT22;25503;52.532;13.640;2023-07-13T13:31:09;27.70;96.10
39825;DHT22;25503;52.532;13.640;2023-07-13T13:33:40;27.60;95.20
39825;DHT22;25503;52.532;13.640;2023-07-13T13:36:22;27.50;96.30
39825;DHT22;25503;52.532;13.640;2023-07-13T13:38:49;27.50;96.40
39825;DHT22;25503;52.532;13.640;2023-07-13T13:41:16;27.60;96.00
39825;DHT22;25503;52.532;13.640;2023-07-13T13:43:42;27.60;96.70
39825;DHT22;25503;52.532;13.640;2023-07-13T13:46:22;27.50;95.80
39825;DHT22;25503;52.532;13.640;2023-07-13T13:48:50;27.50;96.40
39825;DHT22;25503;52.532;13.640;2023-07-13T13:51:21;27.60;97.00
39825;DHT22;25503;52.532;13.640;2023-07-13T13:53:48;27.60;96.20
39825;DHT22;25503;52.532;13.640;2023-07-13T13:56:14;27.60;95.80
39825;DHT22;25503;52.532;13.640;2023-07-13T13:58:40;27.50;96.40
39825;DHT22;25503;52.532;13.640;2023-07-13T14:01:21;27.50;96.40
39825;DHT22;25503;52.532;13.640;2023-07-13T14:03:48;27.30;96.80
39825;DHT22;25503;52.532;13.640;2023-07-13T14:06:15;27.20;97.00
39825;DHT22;25503;52.532;13.640;2023-07-13T14:08:41;27.30;97.30
39825;DHT22;25503;52.532;13.640;2023-07-13T14:11:12;27.30;97.10
39825;DHT22;25503;52.532;13.640;2023-07-13T14:13:42;27.40;97.20
39825;DHT22;25503;52.532;13.640;2023-07-13T14:16:16;27.30;96.80
39825;DHT22;25503;52.532;13.640;2023-07-13T14:18:43;27.30;95.90
39825;DHT22;25503;52.532;13.640;2023-07-13T14:21:19;27.20;96.50
39825;DHT22;25503;52.532;13.640;2023-07-13T14:23:46;27.10;96.20
39825;DHT22;25503;52.532;13.640;2023-07-13T14:26:18;26.90;96.90
39825;DHT22;25503;52.532;13.640;2023-07-13T14:28:49;26.80;97.70
39825;DHT22;25503;52.532;13.640;2023-07-13T14:31:16;26.80;97.50
39825;DHT22;25503;52.532;13.640;2023-07-13T14:33:43;26.80;97.30
39825;DHT22;25503;52.532;13.640;2023-07-13T14:38:43;26.80;96.50
39825;DHT22;25503;52.532;13.640;2023-07-13T14:41:09;26.70;96.80
39825;DHT22;25503;52.532;13.640;2023-07-13T14:43:34;26.60;97.30
39825;DHT22;25503;52.532;13.640;2023-07-13T14:46:00;26.50;97.30
39825;DHT22;25503;52.532;13.640;2023-07-13T14:48:25;26.50;96.70
39825;DHT22;25503;52.532;13.640;2023-07-13T14:50:56;26.50;97.00
39825;DHT22;25503;52.532;13.640;2023-07-13T14:53:24;26.40;96.30
39825;DHT22;25503;52.532;13.640;2023-07-13T14:55:50;26.20;96.30
39825;DHT22;25503;52.532;13.640;2023-07-13T14:58:16;26.20;97.60
39825;DHT22;25503;52.532;13.640;2023-07-13T15:00:42;26.10;97.60
39825;DHT22;25503;52.532;13.640;2023-07-13T15:03:18;26.10;98.30
39825;DHT22;25503;52.532;13.640;2023-07-13T15:05:46;26.20;98.70
39825;DHT22;25503;52.532;13.640;2023-07-13T15:08:12;26.20;98.20
39825;DHT22;25503;52.532;13.640;2023-07-13T15:10:38;26.20;97.70
39825;DHT22;25503;52.532;13.640;2023-07-13T15:13:16;26.30;98.00
39825;DHT22;25503;52.532;13.640;2023-07-13T15:15:45;26.30;97.70
39825;DHT22;25503;52.532;13.640;2023-07-13T15:18:12;26.30;98.20
39825;DHT22;25503;52.532;13.640;2023-07-13T15:20:38;26.20;98.20
39825;DHT22;25503;52.532;13.640;2023-07-13T15:23:04;26.20;98.20
39825;DHT22;25503;52.532;13.640;2023-07-13T15:25:32;26.20;98.00
39825;DHT22;25503;52.532;13.640;2023-07-13T15:28:01;26.30;98.30
39825;DHT22;25503;52.532;13.640;2023-07-13T15:30:29;26.30;97.50
39825;DHT22;25503;52.532;13.640;2023-07-13T15:32:58;26.30;97.20
39825;DHT22;25503;52.532;13.640;2023-07-13T15:35:26;26.30;97.40
39825;DHT22;25503;52.532;13.640;2023-07-13T15:37:53;26.30;97.90
39825;DHT22;25503;52.532;13.640;2023-07-13T15:40:20;26.30;97.90
39825;DHT22;25503;52.532;13.640;2023-07-13T15:42:48;26.30;97.20
39825;DHT22;25503;52.532;13.640;2023-07-13T15:45:16;26.30;97.20
39825;DHT22;25503;52.532;13.640;2023-07-13T15:47:43;26.20;97.70
39825;DHT22;25503;52.532;13.640;2023-07-13T15:50:20;26.20;96.30
39825;DHT22;25503;52.532;13.640;2023-07-13T15:52:52;26.20;96.40
39825;DHT22;25503;52.532;13.640;2023-07-13T15:55:19;26.20;96.00
39825;DHT22;25503;52.532;13.640;2023-07-13T15:57:50;26.30;96.90
39825;DHT22;25503;52.532;13.640;2023-07-13T16:00:22;26.20;96.10
39825;DHT22;25503;52.532;13.640;2023-07-13T16:02:49;26.30;96.30
39825;DHT22;25503;52.532;13.640;2023-07-13T16:05:15;26.10;96.00
39825;DHT22;25503;52.532;13.640;2023-07-13T16:07:43;26.10;96.40
39825;DHT22;25503;52.532;13.640;2023-07-13T16:10:14;26.10;96.90
39825;DHT22;25503;52.532;13.640;2023-07-13T16:12:41;26.10;97.00
39825;DHT22;25503;52.532;13.640;2023-07-13T16:15:15;26.00;96.60